Terminal Aerodrome Forecast
Issued by NWS

Home | Current Version | Previous Version | Text Only | Print | Product List | Glossary On
Versions: 1 2 3 4 5 6 7 8 9 10 11 12 13
000
FTUS42 KMLB 051132
TAFSUA
TAF
KSUA 051132Z 0512/0612 16004KT P6SM FEW010
     FM051300 18010KT P6SM SCT025 SCT035
     FM060300 21010KT P6SM BKN040 OVC060
     FM061000 30005KT P6SM BKN030 OVC050=

USA.gov is the U.S. government's official web portal to all federal, state and local government web resources and services.